sensor_id;sensor_type;location;lat;lon;timestamp;temperature;humidity
7028;DHT22;3555;53.248;10.336;2023-06-05T00:00:07;16.10;1.00
7028;DHT22;3555;53.248;10.336;2023-06-05T00:02:35;16.10;1.00
7028;DHT22;3555;53.248;10.336;2023-06-05T00:05:02;16.10;1.00
7028;DHT22;3555;53.248;10.336;2023-06-05T00:07:29;16.10;1.00
7028;DHT22;3555;53.248;10.336;2023-06-05T00:09:56;16.00;1.00
7028;DHT22;3555;53.248;10.336;2023-06-05T00:12:22;16.00;1.00
7028;DHT22;3555;53.248;10.336;2023-06-05T00:14:51;16.00;1.00
7028;DHT22;3555;53.248;10.336;2023-06-05T00:17:18;16.00;1.00
7028;DHT22;3555;53.248;10.336;2023-06-05T00:19:45;16.00;1.00
7028;DHT22;3555;53.248;10.336;2023-06-05T00:22:12;16.10;1.00
7028;DHT22;3555;53.248;10.336;2023-06-05T00:24:38;16.10;1.00
7028;DHT22;3555;53.248;10.336;2023-06-05T00:27:05;16.20;1.00
7028;DHT22;3555;53.248;10.336;2023-06-05T00:29:32;16.20;1.00
7028;DHT22;3555;53.248;10.336;2023-06-05T00:32:01;16.30;1.00
7028;DHT22;3555;53.248;10.336;2023-06-05T00:34:27;16.20;1.00
7028;DHT22;3555;53.248;10.336;2023-06-05T00:36:54;16.20;1.00
7028;DHT22;3555;53.248;10.336;2023-06-05T00:39:23;16.20;1.00
7028;DHT22;3555;53.248;10.336;2023-06-05T00:41:50;16.20;1.00
7028;DHT22;3555;53.248;10.336;2023-06-05T00:44:17;16.20;1.00
7028;DHT22;3555;53.248;10.336;2023-06-05T00:46:45;16.20;1.00
7028;DHT22;3555;53.248;10.336;2023-06-05T00:49:13;16.20;1.00
7028;DHT22;3555;53.248;10.336;2023-06-05T00:51:41;16.10;1.00
7028;DHT22;3555;53.248;10.336;2023-06-05T00:54:08;16.20;1.00
7028;DHT22;3555;53.248;10.336;2023-06-05T00:56:36;16.10;99.90
7028;DHT22;3555;53.248;10.336;2023-06-05T00:59:05;16.10;99.90
7028;DHT22;3555;53.248;10.336;2023-06-05T01:01:32;15.80;1.00
7028;DHT22;3555;53.248;10.336;2023-06-05T01:04:00;15.50;1.00
7028;DHT22;3555;53.248;10.336;2023-06-05T01:06:29;15.40;1.00
7028;DHT22;3555;53.248;10.336;2023-06-05T01:08:57;15.30;1.00
7028;DHT22;3555;53.248;10.336;2023-06-05T01:11:32;15.30;1.00
7028;DHT22;3555;53.248;10.336;2023-06-05T01:14:08;15.30;1.00
7028;DHT22;3555;53.248;10.336;2023-06-05T01:16:42;15.30;1.00
7028;DHT22;3555;53.248;10.336;2023-06-05T01:19:13;15.30;1.00
7028;DHT22;3555;53.248;10.336;2023-06-05T01:21:42;15.30;1.00
7028;DHT22;3555;53.248;10.336;2023-06-05T01:24:10;15.40;1.00
7028;DHT22;3555;53.248;10.336;2023-06-05T01:26:45;15.30;1.00
7028;DHT22;3555;53.248;10.336;2023-06-05T01:29:21;15.30;1.00
7028;DHT22;3555;53.248;10.336;2023-06-05T01:31:51;15.30;1.00
7028;DHT22;3555;53.248;10.336;2023-06-05T01:34:20;15.20;1.00
7028;DHT22;3555;53.248;10.336;2023-06-05T01:36:50;15.10;1.00
7028;DHT22;3555;53.248;10.336;2023-06-05T01:39:19;15.10;1.00
7028;DHT22;3555;53.248;10.336;2023-06-05T01:41:48;14.50;1.00
7028;DHT22;3555;53.248;10.336;2023-06-05T01:44:16;14.80;1.00
7028;DHT22;3555;53.248;10.336;2023-06-05T01:46:43;14.70;1.00
7028;DHT22;3555;53.248;10.336;2023-06-05T01:49:10;14.60;1.00
7028;DHT22;3555;53.248;10.336;2023-06-05T01:51:37;14.60;1.00
7028;DHT22;3555;53.248;10.336;2023-06-05T01:54:04;14.60;1.00
7028;DHT22;3555;53.248;10.336;2023-06-05T01:56:33;14.60;1.00
7028;DHT22;3555;53.248;10.336;2023-06-05T01:59:02;14.60;1.00
7028;DHT22;3555;53.248;10.336;2023-06-05T02:01:33;14.60;85.40
7028;DHT22;3555;53.248;10.336;2023-06-05T02:04:00;14.50;99.90
7028;DHT22;3555;53.248;10.336;2023-06-05T02:06:32;14.50;99.90
7028;DHT22;3555;53.248;10.336;2023-06-05T02:09:07;14.50;99.90
7028;DHT22;3555;53.248;10.336;2023-06-05T02:11:38;14.50;1.00
7028;DHT22;3555;53.248;10.336;2023-06-05T02:14:05;14.50;99.90
7028;DHT22;3555;53.248;10.336;2023-06-05T02:16:33;14.50;99.90
7028;DHT22;3555;53.248;10.336;2023-06-05T02:19:02;14.50;99.90
7028;DHT22;3555;53.248;10.336;2023-06-05T02:21:30;14.50;99.90
7028;DHT22;3555;53.248;10.336;2023-06-05T02:23:59;14.50;99.90
7028;DHT22;3555;53.248;10.336;2023-06-05T02:26:25;14.40;99.90
7028;DHT22;3555;53.248;10.336;2023-06-05T02:28:54;14.40;99.90
7028;DHT22;3555;53.248;10.336;2023-06-05T02:31:22;14.40;99.90
7028;DHT22;3555;53.248;10.336;2023-06-05T02:33:51;14.40;99.90
7028;DHT22;3555;53.248;10.336;2023-06-05T02:36:18;14.40;99.90
7028;DHT22;3555;53.248;10.336;2023-06-05T02:38:45;14.30;99.90
7028;DHT22;3555;53.248;10.336;2023-06-05T02:41:15;14.30;99.90
7028;DHT22;3555;53.248;10.336;2023-06-05T02:43:42;14.30;99.90
7028;DHT22;3555;53.248;10.336;2023-06-05T02:46:10;14.40;99.90
7028;DHT22;3555;53.248;10.336;2023-06-05T02:48:37;14.20;99.90
7028;DHT22;3555;53.248;10.336;2023-06-05T02:51:04;14.20;99.90
7028;DHT22;3555;53.248;10.336;2023-06-05T02:53:32;14.10;99.90
7028;DHT22;3555;53.248;10.336;2023-06-05T02:55:59;14.10;99.90
7028;DHT22;3555;53.248;10.336;2023-06-05T02:58:27;14.00;99.90
7028;DHT22;3555;53.248;10.336;2023-06-05T03:00:54;13.90;99.90
7028;DHT22;3555;53.248;10.336;2023-06-05T03:03:23;13.80;99.90
7028;DHT22;3555;53.248;10.336;2023-06-05T03:05:51;13.70;1.00
7028;DHT22;3555;53.248;10.336;2023-06-05T03:08:18;13.60;1.00
7028;DHT22;3555;53.248;10.336;2023-06-05T03:10:45;13.50;1.00
7028;DHT22;3555;53.248;10.336;2023-06-05T03:13:12;13.40;1.00
7028;DHT22;3555;53.248;10.336;2023-06-05T03:15:39;13.50;1.00
7028;DHT22;3555;53.248;10.336;2023-06-05T03:18:06;13.50;1.00
7028;DHT22;3555;53.248;10.336;2023-06-05T03:20:34;13.40;1.00
7028;DHT22;3555;53.248;10.336;2023-06-05T03:23:01;13.40;1.00
7028;DHT22;3555;53.248;10.336;2023-06-05T03:25:28;13.30;1.00
7028;DHT22;3555;53.248;10.336;2023-06-05T03:27:55;13.20;99.90
7028;DHT22;3555;53.248;10.336;2023-06-05T03:30:22;13.20;99.90
7028;DHT22;3555;53.248;10.336;2023-06-05T03:32:49;13.30;59.10
7028;DHT22;3555;53.248;10.336;2023-06-05T03:35:16;13.30;1.00
7028;DHT22;3555;53.248;10.336;2023-06-05T03:37:45;13.40;1.00
7028;DHT22;3555;53.248;10.336;2023-06-05T03:40:12;13.50;1.00
7028;DHT22;3555;53.248;10.336;2023-06-05T03:42:39;13.60;1.00
7028;DHT22;3555;53.248;10.336;2023-06-05T03:45:06;13.70;1.00
7028;DHT22;3555;53.248;10.336;2023-06-05T03:47:34;13.70;1.00
7028;DHT22;3555;53.248;10.336;2023-06-05T03:50:01;13.80;1.00
7028;DHT22;3555;53.248;10.336;2023-06-05T03:52:28;13.70;1.00
7028;DHT22;3555;53.248;10.336;2023-06-05T03:54:56;13.70;1.00
7028;DHT22;3555;53.248;10.336;2023-06-05T03:57:23;13.70;1.00
7028;DHT22;3555;53.248;10.336;2023-06-05T03:59:50;13.80;1.00
7028;DHT22;3555;53.248;10.336;2023-06-05T04:02:18;13.90;1.00
7028;DHT22;3555;53.248;10.336;2023-06-05T04:04:45;13.90;99.90
7028;DHT22;3555;53.248;10.336;2023-06-05T04:07:12;14.00;99.90
7028;DHT22;3555;53.248;10.336;2023-06-05T04:09:39;14.00;99.90
7028;DHT22;3555;53.248;10.336;2023-06-05T04:12:07;14.10;99.90
7028;DHT22;3555;53.248;10.336;2023-06-05T04:14:35;14.20;99.90
7028;DHT22;3555;53.248;10.336;2023-06-05T04:17:04;14.20;99.90
7028;DHT22;3555;53.248;10.336;2023-06-05T04:19:31;14.30;99.90
7028;DHT22;3555;53.248;10.336;2023-06-05T04:21:58;14.40;99.90
7028;DHT22;3555;53.248;10.336;2023-06-05T04:24:25;14.40;99.90
7028;DHT22;3555;53.248;10.336;2023-06-05T04:26:53;14.50;99.90
7028;DHT22;3555;53.248;10.336;2023-06-05T04:29:21;14.80;66.40
7028;DHT22;3555;53.248;10.336;2023-06-05T04:31:48;14.70;1.00
7028;DHT22;3555;53.248;10.336;2023-06-05T04:34:15;14.90;1.00
7028;DHT22;3555;53.248;10.336;2023-06-05T04:36:43;15.10;1.00
7028;DHT22;3555;53.248;10.336;2023-06-05T04:39:12;15.10;1.00
7028;DHT22;3555;53.248;10.336;2023-06-05T04:41:40;15.30;99.90
7028;DHT22;3555;53.248;10.336;2023-06-05T04:44:11;15.40;99.90
7028;DHT22;3555;53.248;10.336;2023-06-05T04:46:39;15.50;99.90
7028;DHT22;3555;53.248;10.336;2023-06-05T04:49:09;15.60;99.90
7028;DHT22;3555;53.248;10.336;2023-06-05T04:51:36;15.80;99.90
7028;DHT22;3555;53.248;10.336;2023-06-05T04:54:03;15.90;99.90
7028;DHT22;3555;53.248;10.336;2023-06-05T04:56:31;16.10;1.00
7028;DHT22;3555;53.248;10.336;2023-06-05T04:59:00;16.20;1.00
7028;DHT22;3555;53.248;10.336;2023-06-05T05:01:26;16.40;1.00
7028;DHT22;3555;53.248;10.336;2023-06-05T05:03:55;16.50;1.00
7028;DHT22;3555;53.248;10.336;2023-06-05T05:06:22;16.60;1.00
7028;DHT22;3555;53.248;10.336;2023-06-05T05:08:49;16.70;1.00
7028;DHT22;3555;53.248;10.336;2023-06-05T05:11:17;16.90;1.00
7028;DHT22;3555;53.248;10.336;2023-06-05T05:13:44;17.00;1.00
7028;DHT22;3555;53.248;10.336;2023-06-05T05:16:10;17.20;1.00
7028;DHT22;3555;53.248;10.336;2023-06-05T05:18:42;17.30;1.00
7028;DHT22;3555;53.248;10.336;2023-06-05T05:21:11;17.60;1.00
7028;DHT22;3555;53.248;10.336;2023-06-05T05:23:37;17.70;1.00
7028;DHT22;3555;53.248;10.336;2023-06-05T05:26:04;17.90;1.00
7028;DHT22;3555;53.248;10.336;2023-06-05T05:28:31;18.10;99.90
7028;DHT22;3555;53.248;10.336;2023-06-05T05:30:58;18.30;99.90
7028;DHT22;3555;53.248;10.336;2023-06-05T05:33:25;18.40;99.90
7028;DHT22;3555;53.248;10.336;2023-06-05T05:35:52;18.50;99.90
7028;DHT22;3555;53.248;10.336;2023-06-05T05:38:20;18.50;99.90
7028;DHT22;3555;53.248;10.336;2023-06-05T05:40:47;18.70;99.90
7028;DHT22;3555;53.248;10.336;2023-06-05T05:43:14;18.90;99.90
7028;DHT22;3555;53.248;10.336;2023-06-05T05:45:42;19.00;99.90
7028;DHT22;3555;53.248;10.336;2023-06-05T05:48:09;19.20;99.90
7028;DHT22;3555;53.248;10.336;2023-06-05T05:50:36;19.30;99.90
7028;DHT22;3555;53.248;10.336;2023-06-05T05:53:03;19.50;99.90
7028;DHT22;3555;53.248;10.336;2023-06-05T05:55:31;19.70;30.20
7028;DHT22;3555;53.248;10.336;2023-06-05T05:57:58;19.90;60.20
7028;DHT22;3555;53.248;10.336;2023-06-05T06:00:25;20.10;17.50
7028;DHT22;3555;53.248;10.336;2023-06-05T06:02:53;20.20;1.00
7028;DHT22;3555;53.248;10.336;2023-06-05T06:05:20;20.30;1.00
7028;DHT22;3555;53.248;10.336;2023-06-05T06:07:47;20.40;1.00
7028;DHT22;3555;53.248;10.336;2023-06-05T06:10:14;20.40;1.00
7028;DHT22;3555;53.248;10.336;2023-06-05T06:12:43;20.50;1.00
7028;DHT22;3555;53.248;10.336;2023-06-05T06:15:10;20.60;1.00
7028;DHT22;3555;53.248;10.336;2023-06-05T06:17:37;20.90;1.00
7028;DHT22;3555;53.248;10.336;2023-06-05T06:20:05;20.70;1.00
7028;DHT22;3555;53.248;10.336;2023-06-05T06:22:32;20.80;1.00
7028;DHT22;3555;53.248;10.336;2023-06-05T06:24:59;20.90;1.00
7028;DHT22;3555;53.248;10.336;2023-06-05T06:27:27;20.90;1.00
7028;DHT22;3555;53.248;10.336;2023-06-05T06:29:55;21.10;1.00
7028;DHT22;3555;53.248;10.336;2023-06-05T06:32:23;21.50;1.00
7028;DHT22;3555;53.248;10.336;2023-06-05T06:34:51;21.50;1.00
7028;DHT22;3555;53.248;10.336;2023-06-05T06:37:19;21.60;1.00
7028;DHT22;3555;53.248;10.336;2023-06-05T06:39:47;21.80;1.00
7028;DHT22;3555;53.248;10.336;2023-06-05T06:42:14;22.00;1.00
7028;DHT22;3555;53.248;10.336;2023-06-05T06:44:41;22.10;1.00
7028;DHT22;3555;53.248;10.336;2023-06-05T06:47:09;22.30;1.00
7028;DHT22;3555;53.248;10.336;2023-06-05T06:49:36;22.40;1.00
7028;DHT22;3555;53.248;10.336;2023-06-05T06:52:04;22.50;1.00
7028;DHT22;3555;53.248;10.336;2023-06-05T06:54:31;22.70;1.00
7028;DHT22;3555;53.248;10.336;2023-06-05T06:56:58;22.90;1.00
7028;DHT22;3555;53.248;10.336;2023-06-05T06:59:26;23.10;1.00
7028;DHT22;3555;53.248;10.336;2023-06-05T07:04:45;23.40;1.00
7028;DHT22;3555;53.248;10.336;2023-06-05T07:07:13;23.60;1.00
7028;DHT22;3555;53.248;10.336;2023-06-05T07:09:41;23.30;1.00
7028;DHT22;3555;53.248;10.336;2023-06-05T07:12:08;23.20;1.00
7028;DHT22;3555;53.248;10.336;2023-06-05T07:14:37;23.20;1.00
7028;DHT22;3555;53.248;10.336;2023-06-05T07:17:04;23.20;1.00
7028;DHT22;3555;53.248;10.336;2023-06-05T07:19:32;23.30;1.00
7028;DHT22;3555;53.248;10.336;2023-06-05T07:22:02;23.40;1.00
7028;DHT22;3555;53.248;10.336;2023-06-05T07:24:30;23.50;1.00
7028;DHT22;3555;53.248;10.336;2023-06-05T07:26:59;23.70;1.00
7028;DHT22;3555;53.248;10.336;2023-06-05T07:29:27;23.90;1.00
7028;DHT22;3555;53.248;10.336;2023-06-05T07:31:56;24.10;1.00
7028;DHT22;3555;53.248;10.336;2023-06-05T07:34:25;24.20;1.00
7028;DHT22;3555;53.248;10.336;2023-06-05T07:36:52;24.10;1.00
7028;DHT22;3555;53.248;10.336;2023-06-05T07:39:22;24.30;1.00
7028;DHT22;3555;53.248;10.336;2023-06-05T07:41:49;24.60;1.00
7028;DHT22;3555;53.248;10.336;2023-06-05T07:44:18;24.70;1.00
7028;DHT22;3555;53.248;10.336;2023-06-05T07:46:46;24.80;1.00
7028;DHT22;3555;53.248;10.336;2023-06-05T07:49:13;25.00;1.00
7028;DHT22;3555;53.248;10.336;2023-06-05T07:51:41;24.90;1.00
7028;DHT22;3555;53.248;10.336;2023-06-05T07:54:10;24.90;1.00
7028;DHT22;3555;53.248;10.336;2023-06-05T07:56:39;24.80;1.00
7028;DHT22;3555;53.248;10.336;2023-06-05T07:59:07;24.80;1.00
7028;DHT22;3555;53.248;10.336;2023-06-05T08:01:35;24.50;1.00
7028;DHT22;3555;53.248;10.336;2023-06-05T08:04:03;24.50;1.00
7028;DHT22;3555;53.248;10.336;2023-06-05T08:06:30;24.80;1.00
7028;DHT22;3555;53.248;10.336;2023-06-05T08:08:58;25.10;1.00
7028;DHT22;3555;53.248;10.336;2023-06-05T08:11:25;25.40;1.00
7028;DHT22;3555;53.248;10.336;2023-06-05T08:13:53;25.40;1.00
7028;DHT22;3555;53.248;10.336;2023-06-05T08:16:20;24.90;1.00
7028;DHT22;3555;53.248;10.336;2023-06-05T08:18:47;24.90;1.00
7028;DHT22;3555;53.248;10.336;2023-06-05T08:21:14;25.30;1.00
7028;DHT22;3555;53.248;10.336;2023-06-05T08:23:42;25.60;1.00
7028;DHT22;3555;53.248;10.336;2023-06-05T08:26:09;25.80;1.00
7028;DHT22;3555;53.248;10.336;2023-06-05T08:28:38;25.80;1.00
7028;DHT22;3555;53.248;10.336;2023-06-05T08:31:07;25.60;1.00
7028;DHT22;3555;53.248;10.336;2023-06-05T08:33:34;25.60;1.00
7028;DHT22;3555;53.248;10.336;2023-06-05T08:36:01;25.80;1.00
7028;DHT22;3555;53.248;10.336;2023-06-05T08:38:28;25.70;99.90
7028;DHT22;3555;53.248;10.336;2023-06-05T08:40:59;25.30;1.00
7028;DHT22;3555;53.248;10.336;2023-06-05T08:43:27;25.60;1.00
7028;DHT22;3555;53.248;10.336;2023-06-05T08:45:55;25.80;1.00
7028;DHT22;3555;53.248;10.336;2023-06-05T08:48:24;26.10;1.00
7028;DHT22;3555;53.248;10.336;2023-06-05T08:50:52;26.10;99.90
7028;DHT22;3555;53.248;10.336;2023-06-05T08:53:21;26.20;99.90
7028;DHT22;3555;53.248;10.336;2023-06-05T08:55:53;26.60;99.90
7028;DHT22;3555;53.248;10.336;2023-06-05T08:58:21;26.80;99.90
7028;DHT22;3555;53.248;10.336;2023-06-05T09:00:48;26.30;99.90
7028;DHT22;3555;53.248;10.336;2023-06-05T09:03:16;26.40;99.90
7028;DHT22;3555;53.248;10.336;2023-06-05T09:05:47;26.60;99.90
7028;DHT22;3555;53.248;10.336;2023-06-05T09:08:14;26.70;99.90
7028;DHT22;3555;53.248;10.336;2023-06-05T09:10:42;26.90;99.90
7028;DHT22;3555;53.248;10.336;2023-06-05T09:13:09;27.00;99.90
7028;DHT22;3555;53.248;10.336;2023-06-05T09:15:36;27.20;99.90
7028;DHT22;3555;53.248;10.336;2023-06-05T09:18:08;27.30;99.90
7028;DHT22;3555;53.248;10.336;2023-06-05T09:20:36;27.50;99.90
7028;DHT22;3555;53.248;10.336;2023-06-05T09:23:21;27.60;99.90
7028;DHT22;3555;53.248;10.336;2023-06-05T09:25:50;27.90;99.90
7028;DHT22;3555;53.248;10.336;2023-06-05T09:28:18;28.30;99.90
7028;DHT22;3555;53.248;10.336;2023-06-05T09:30:55;27.40;99.90
7028;DHT22;3555;53.248;10.336;2023-06-05T09:33:23;27.60;99.90
7028;DHT22;3555;53.248;10.336;2023-06-05T09:36:03;27.80;99.90
7028;DHT22;3555;53.248;10.336;2023-06-05T09:38:32;28.10;99.90
7028;DHT22;3555;53.248;10.336;2023-06-05T09:41:06;28.10;99.90
7028;DHT22;3555;53.248;10.336;2023-06-05T09:43:33;28.10;99.90
7028;DHT22;3555;53.248;10.336;2023-06-05T09:46:12;28.10;99.90
7028;DHT22;3555;53.248;10.336;2023-06-05T09:48:40;28.20;99.90
7028;DHT22;3555;53.248;10.336;2023-06-05T09:51:11;28.40;99.90
7028;DHT22;3555;53.248;10.336;2023-06-05T09:53:42;28.40;99.90
7028;DHT22;3555;53.248;10.336;2023-06-05T09:56:11;28.60;99.90
7028;DHT22;3555;53.248;10.336;2023-06-05T09:58:44;28.70;99.90
7028;DHT22;3555;53.248;10.336;2023-06-05T10:01:14;28.90;99.90
7028;DHT22;3555;53.248;10.336;2023-06-05T10:03:47;28.60;99.90
7028;DHT22;3555;53.248;10.336;2023-06-05T10:06:16;27.80;99.90
7028;DHT22;3555;53.248;10.336;2023-06-05T10:08:50;27.60;99.90
7028;DHT22;3555;53.248;10.336;2023-06-05T10:11:19;27.90;99.90
7028;DHT22;3555;53.248;10.336;2023-06-05T10:13:47;28.30;99.90
7028;DHT22;3555;53.248;10.336;2023-06-05T10:16:14;28.30;99.90
7028;DHT22;3555;53.248;10.336;2023-06-05T10:18:45;28.80;99.90
7028;DHT22;3555;53.248;10.336;2023-06-05T10:21:13;28.40;99.90
7028;DHT22;3555;53.248;10.336;2023-06-05T10:23:42;28.70;99.90
7028;DHT22;3555;53.248;10.336;2023-06-05T10:26:20;29.10;99.90
7028;DHT22;3555;53.248;10.336;2023-06-05T10:28:56;29.20;99.90
7028;DHT22;3555;53.248;10.336;2023-06-05T10:31:35;29.40;99.90
7028;DHT22;3555;53.248;10.336;2023-06-05T10:34:21;29.20;99.90
7028;DHT22;3555;53.248;10.336;2023-06-05T10:37:18;29.10;99.90
7028;DHT22;3555;53.248;10.336;2023-06-05T10:39:53;28.90;99.90
7028;DHT22;3555;53.248;10.336;2023-06-05T10:42:26;28.80;99.90
7028;DHT22;3555;53.248;10.336;2023-06-05T10:44:55;28.60;99.90
7028;DHT22;3555;53.248;10.336;2023-06-05T10:47:52;28.00;99.90
7028;DHT22;3555;53.248;10.336;2023-06-05T10:50:29;28.10;99.90
7028;DHT22;3555;53.248;10.336;2023-06-05T10:52:57;28.70;99.90
7028;DHT22;3555;53.248;10.336;2023-06-05T10:55:26;29.30;99.90
7028;DHT22;3555;53.248;10.336;2023-06-05T10:58:08;29.00;99.90
7028;DHT22;3555;53.248;10.336;2023-06-05T11:00:37;29.10;99.90
7028;DHT22;3555;53.248;10.336;2023-06-05T11:03:05;29.30;99.90
7028;DHT22;3555;53.248;10.336;2023-06-05T11:05:33;29.60;99.90
7028;DHT22;3555;53.248;10.336;2023-06-05T11:08:13;29.70;99.90
7028;DHT22;3555;53.248;10.336;2023-06-05T11:11:02;29.50;99.90
7028;DHT22;3555;53.248;10.336;2023-06-05T11:13:54;28.40;99.90
7028;DHT22;3555;53.248;10.336;2023-06-05T11:16:28;28.70;99.90
7028;DHT22;3555;53.248;10.336;2023-06-05T11:22:07;28.70;99.90
7028;DHT22;3555;53.248;10.336;2023-06-05T11:24:35;28.90;99.90
7028;DHT22;3555;53.248;10.336;2023-06-05T11:27:04;28.80;99.90
7028;DHT22;3555;53.248;10.336;2023-06-05T11:29:33;28.60;99.90
7028;DHT22;3555;53.248;10.336;2023-06-05T11:32:00;28.90;99.90
7028;DHT22;3555;53.248;10.336;2023-06-05T11:34:36;29.30;99.90
7028;DHT22;3555;53.248;10.336;2023-06-05T11:37:16;29.60;99.90
7028;DHT22;3555;53.248;10.336;2023-06-05T11:39:44;29.50;99.90
7028;DHT22;3555;53.248;10.336;2023-06-05T11:42:11;29.80;99.90
7028;DHT22;3555;53.248;10.336;2023-06-05T11:44:39;29.80;99.90
7028;DHT22;3555;53.248;10.336;2023-06-05T11:47:07;29.10;99.90
7028;DHT22;3555;53.248;10.336;2023-06-05T11:49:34;28.20;99.90
7028;DHT22;3555;53.248;10.336;2023-06-05T11:52:01;28.20;99.90
7028;DHT22;3555;53.248;10.336;2023-06-05T11:54:30;28.50;99.90
7028;DHT22;3555;53.248;10.336;2023-06-05T11:57:01;28.30;99.90
7028;DHT22;3555;53.248;10.336;2023-06-05T11:59:34;28.50;99.90
7028;DHT22;3555;53.248;10.336;2023-06-05T12:02:04;29.10;99.90
7028;DHT22;3555;53.248;10.336;2023-06-05T12:04:32;29.30;99.90
7028;DHT22;3555;53.248;10.336;2023-06-05T12:06:58;29.50;99.90
7028;DHT22;3555;53.248;10.336;2023-06-05T12:09:28;29.90;99.90
7028;DHT22;3555;53.248;10.336;2023-06-05T12:12:05;29.60;99.90
7028;DHT22;3555;53.248;10.336;2023-06-05T12:14:33;29.70;99.90
7028;DHT22;3555;53.248;10.336;2023-06-05T12:17:01;29.90;99.90
7028;DHT22;3555;53.248;10.336;2023-06-05T12:19:36;29.60;99.90
7028;DHT22;3555;53.248;10.336;2023-06-05T12:22:04;29.60;99.90
7028;DHT22;3555;53.248;10.336;2023-06-05T12:24:31;29.60;99.90
7028;DHT22;3555;53.248;10.336;2023-06-05T12:26:59;29.60;99.90
7028;DHT22;3555;53.248;10.336;2023-06-05T12:29:28;29.00;99.90
7028;DHT22;3555;53.248;10.336;2023-06-05T12:31:56;28.40;99.90
7028;DHT22;3555;53.248;10.336;2023-06-05T12:34:40;28.10;99.90
7028;DHT22;3555;53.248;10.336;2023-06-05T12:37:08;28.10;99.90
7028;DHT22;3555;53.248;10.336;2023-06-05T12:39:35;28.00;99.90
7028;DHT22;3555;53.248;10.336;2023-06-05T12:42:03;28.10;99.90
7028;DHT22;3555;53.248;10.336;2023-06-05T12:44:30;28.30;99.90
7028;DHT22;3555;53.248;10.336;2023-06-05T12:46:57;28.80;99.90
7028;DHT22;3555;53.248;10.336;2023-06-05T12:49:24;29.50;99.90
7028;DHT22;3555;53.248;10.336;2023-06-05T12:51:52;30.10;99.90
7028;DHT22;3555;53.248;10.336;2023-06-05T12:54:20;30.50;99.90
7028;DHT22;3555;53.248;10.336;2023-06-05T12:56:47;31.00;99.90
7028;DHT22;3555;53.248;10.336;2023-06-05T12:59:15;31.30;99.90
7028;DHT22;3555;53.248;10.336;2023-06-05T13:01:41;30.50;99.90
7028;DHT22;3555;53.248;10.336;2023-06-05T13:04:09;30.10;99.90
7028;DHT22;3555;53.248;10.336;2023-06-05T13:06:36;30.00;99.90
7028;DHT22;3555;53.248;10.336;2023-06-05T13:09:04;30.10;99.90
7028;DHT22;3555;53.248;10.336;2023-06-05T13:11:31;30.10;99.90
7028;DHT22;3555;53.248;10.336;2023-06-05T13:13:58;29.80;99.90
7028;DHT22;3555;53.248;10.336;2023-06-05T13:16:25;29.70;99.90
7028;DHT22;3555;53.248;10.336;2023-06-05T13:18:52;29.50;99.90
7028;DHT22;3555;53.248;10.336;2023-06-05T13:21:19;29.60;99.90
7028;DHT22;3555;53.248;10.336;2023-06-05T13:23:46;29.90;99.90
7028;DHT22;3555;53.248;10.336;2023-06-05T13:26:14;30.20;99.90
7028;DHT22;3555;53.248;10.336;2023-06-05T13:28:41;30.30;99.90
7028;DHT22;3555;53.248;10.336;2023-06-05T13:31:10;30.50;99.90
7028;DHT22;3555;53.248;10.336;2023-06-05T13:33:38;30.50;99.90
7028;DHT22;3555;53.248;10.336;2023-06-05T13:36:06;30.60;99.90
7028;DHT22;3555;53.248;10.336;2023-06-05T13:38:33;30.80;99.90
7028;DHT22;3555;53.248;10.336;2023-06-05T13:41:03;30.80;99.90
7028;DHT22;3555;53.248;10.336;2023-06-05T13:43:31;30.30;99.90
7028;DHT22;3555;53.248;10.336;2023-06-05T13:45:59;30.40;99.90
7028;DHT22;3555;53.248;10.336;2023-06-05T13:48:27;30.60;99.90
7028;DHT22;3555;53.248;10.336;2023-06-05T13:50:55;30.70;99.90
7028;DHT22;3555;53.248;10.336;2023-06-05T13:53:23;30.70;99.90
7028;DHT22;3555;53.248;10.336;2023-06-05T13:55:50;30.70;99.90
7028;DHT22;3555;53.248;10.336;2023-06-05T13:58:17;30.50;99.90
7028;DHT22;3555;53.248;10.336;2023-06-05T14:00:45;30.50;99.90
7028;DHT22;3555;53.248;10.336;2023-06-05T14:03:12;30.70;99.90
7028;DHT22;3555;53.248;10.336;2023-06-05T14:05:39;30.80;99.90
7028;DHT22;3555;53.248;10.336;2023-06-05T14:08:06;30.40;99.90
7028;DHT22;3555;53.248;10.336;2023-06-05T14:10:33;30.20;99.90
7028;DHT22;3555;53.248;10.336;2023-06-05T14:13:02;30.10;99.90
7028;DHT22;3555;53.248;10.336;2023-06-05T14:15:31;29.70;99.90
7028;DHT22;3555;53.248;10.336;2023-06-05T14:18:01;29.70;99.90
7028;DHT22;3555;53.248;10.336;2023-06-05T14:20:28;29.40;99.90
7028;DHT22;3555;53.248;10.336;2023-06-05T14:22:56;29.60;99.90
7028;DHT22;3555;53.248;10.336;2023-06-05T14:25:23;29.50;99.90
7028;DHT22;3555;53.248;10.336;2023-06-05T14:27:53;29.30;99.90
7028;DHT22;3555;53.248;10.336;2023-06-05T14:30:20;29.50;99.90
7028;DHT22;3555;53.248;10.336;2023-06-05T14:32:47;29.70;99.90
7028;DHT22;3555;53.248;10.336;2023-06-05T14:35:16;29.30;99.90
7028;DHT22;3555;53.248;10.336;2023-06-05T14:37:45;29.40;99.90
7028;DHT22;3555;53.248;10.336;2023-06-05T14:40:12;29.10;99.90
7028;DHT22;3555;53.248;10.336;2023-06-05T14:42:39;29.00;99.90
7028;DHT22;3555;53.248;10.336;2023-06-05T14:45:07;29.20;99.90
7028;DHT22;3555;53.248;10.336;2023-06-05T14:47:34;29.40;99.90
7028;DHT22;3555;53.248;10.336;2023-06-05T14:50:01;29.50;99.90
7028;DHT22;3555;53.248;10.336;2023-06-05T14:52:29;29.80;99.90
7028;DHT22;3555;53.248;10.336;2023-06-05T14:54:56;30.00;99.90
7028;DHT22;3555;53.248;10.336;2023-06-05T14:57:23;30.10;99.90
7028;DHT22;3555;53.248;10.336;2023-06-05T14:59:50;29.90;99.90
7028;DHT22;3555;53.248;10.336;2023-06-05T15:02:17;29.90;99.90
7028;DHT22;3555;53.248;10.336;2023-06-05T15:04:47;30.00;99.90
7028;DHT22;3555;53.248;10.336;2023-06-05T15:07:18;30.10;99.90
7028;DHT22;3555;53.248;10.336;2023-06-05T15:09:48;28.70;99.90
7028;DHT22;3555;53.248;10.336;2023-06-05T15:12:16;27.80;99.90
7028;DHT22;3555;53.248;10.336;2023-06-05T15:14:43;27.80;99.90
7028;DHT22;3555;53.248;10.336;2023-06-05T15:17:10;28.00;99.90
7028;DHT22;3555;53.248;10.336;2023-06-05T15:19:37;27.80;99.90
7028;DHT22;3555;53.248;10.336;2023-06-05T15:22:04;26.90;99.90
7028;DHT22;3555;53.248;10.336;2023-06-05T15:24:33;26.90;99.90
7028;DHT22;3555;53.248;10.336;2023-06-05T15:27:02;26.80;99.90
7028;DHT22;3555;53.248;10.336;2023-06-05T15:29:29;26.90;99.90
7028;DHT22;3555;53.248;10.336;2023-06-05T15:31:56;26.60;99.90
7028;DHT22;3555;53.248;10.336;2023-06-05T15:34:23;26.80;99.90
7028;DHT22;3555;53.248;10.336;2023-06-05T15:36:50;27.20;99.90
7028;DHT22;3555;53.248;10.336;2023-06-05T15:39:17;27.50;99.90
7028;DHT22;3555;53.248;10.336;2023-06-05T15:41:44;27.60;99.90
7028;DHT22;3555;53.248;10.336;2023-06-05T15:44:15;27.80;99.90
7028;DHT22;3555;53.248;10.336;2023-06-05T15:46:42;27.70;99.90
7028;DHT22;3555;53.248;10.336;2023-06-05T15:49:10;27.90;99.90
7028;DHT22;3555;53.248;10.336;2023-06-05T15:51:37;27.70;99.90
7028;DHT22;3555;53.248;10.336;2023-06-05T15:54:04;27.80;99.90
7028;DHT22;3555;53.248;10.336;2023-06-05T15:56:31;27.90;99.90
7028;DHT22;3555;53.248;10.336;2023-06-05T15:58:59;28.00;99.90
7028;DHT22;3555;53.248;10.336;2023-06-05T16:01:27;28.20;99.90
7028;DHT22;3555;53.248;10.336;2023-06-05T16:03:54;28.50;99.90
7028;DHT22;3555;53.248;10.336;2023-06-05T16:06:21;28.70;99.90